sensor_id;sensor_type;location;lat;lon;timestamp;P1;durP1;ratioP1;P2;durP2;ratioP2
34471;SDS011;20710;49.976;19.836;2022-11-20T00:02:12;146.83;;;71.30;;
34471;SDS011;20710;49.976;19.836;2022-11-20T00:08:13;197.00;;;86.77;;
34471;SDS011;20710;49.976;19.836;2022-11-20T00:14:15;188.10;;;83.50;;
34471;SDS011;20710;49.976;19.836;2022-11-20T00:20:16;190.43;;;85.10;;
34471;SDS011;20710;49.976;19.836;2022-11-20T00:26:18;196.87;;;85.13;;
34471;SDS011;20710;49.976;19.836;2022-11-20T00:32:21;183.70;;;80.23;;
34471;SDS011;20710;49.976;19.836;2022-11-20T00:38:22;178.70;;;78.77;;
34471;SDS011;20710;49.976;19.836;2022-11-20T00:44:23;172.80;;;75.90;;
34471;SDS011;20710;49.976;19.836;2022-11-20T00:50:25;186.93;;;82.00;;
34471;SDS011;20710;49.976;19.836;2022-11-20T00:56:26;165.23;;;74.23;;
34471;SDS011;20710;49.976;19.836;2022-11-20T01:02:28;156.77;;;71.83;;
34471;SDS011;20710;49.976;19.836;2022-11-20T01:08:31;167.57;;;74.30;;
34471;SDS011;20710;49.976;19.836;2022-11-20T01:14:35;182.17;;;80.73;;
34471;SDS011;20710;49.976;19.836;2022-11-20T01:20:37;166.33;;;81.13;;
34471;SDS011;20710;49.976;19.836;2022-11-20T01:26:39;174.87;;;79.50;;
34471;SDS011;20710;49.976;19.836;2022-11-20T01:32:41;180.20;;;84.27;;
34471;SDS011;20710;49.976;19.836;2022-11-20T01:38:43;187.33;;;83.40;;
34471;SDS011;20710;49.976;19.836;2022-11-20T01:44:49;184.77;;;81.93;;
34471;SDS011;20710;49.976;19.836;2022-11-20T01:50:59;176.50;;;77.83;;
34471;SDS011;20710;49.976;19.836;2022-11-20T01:57:03;158.83;;;74.67;;
34471;SDS011;20710;49.976;19.836;2022-11-20T02:03:07;164.87;;;72.37;;
34471;SDS011;20710;49.976;19.836;2022-11-20T02:09:17;146.63;;;60.73;;
34471;SDS011;20710;49.976;19.836;2022-11-20T02:15:19;162.17;;;67.90;;
34471;SDS011;20710;49.976;19.836;2022-11-20T02:21:32;132.83;;;58.23;;
34471;SDS011;20710;49.976;19.836;2022-11-20T02:27:54;144.70;;;62.70;;
34471;SDS011;20710;49.976;19.836;2022-11-20T02:33:57;144.33;;;61.43;;
34471;SDS011;20710;49.976;19.836;2022-11-20T02:39:58;145.53;;;61.27;;
34471;SDS011;20710;49.976;19.836;2022-11-20T02:46:00;145.80;;;62.07;;
34471;SDS011;20710;49.976;19.836;2022-11-20T02:52:01;145.37;;;61.37;;
34471;SDS011;20710;49.976;19.836;2022-11-20T02:58:02;145.60;;;62.53;;
34471;SDS011;20710;49.976;19.836;2022-11-20T03:04:04;142.77;;;60.13;;
34471;SDS011;20710;49.976;19.836;2022-11-20T03:10:06;127.07;;;55.67;;
34471;SDS011;20710;49.976;19.836;2022-11-20T03:16:13;138.97;;;57.20;;
34471;SDS011;20710;49.976;19.836;2022-11-20T03:22:16;135.97;;;58.33;;
34471;SDS011;20710;49.976;19.836;2022-11-20T03:28:17;143.07;;;63.27;;
34471;SDS011;20710;49.976;19.836;2022-11-20T03:34:19;136.23;;;57.93;;
34471;SDS011;20710;49.976;19.836;2022-11-20T03:40:20;134.80;;;56.63;;
34471;SDS011;20710;49.976;19.836;2022-11-20T03:46:21;133.07;;;58.97;;
34471;SDS011;20710;49.976;19.836;2022-11-20T03:52:23;132.43;;;55.83;;
34471;SDS011;20710;49.976;19.836;2022-11-20T03:58:24;145.40;;;56.03;;
34471;SDS011;20710;49.976;19.836;2022-11-20T04:04:25;134.20;;;56.50;;
34471;SDS011;20710;49.976;19.836;2022-11-20T04:10:26;132.07;;;56.73;;
34471;SDS011;20710;49.976;19.836;2022-11-20T04:16:31;137.00;;;56.57;;
34471;SDS011;20710;49.976;19.836;2022-11-20T04:22:36;131.70;;;56.37;;
34471;SDS011;20710;49.976;19.836;2022-11-20T04:28:38;133.97;;;56.83;;
34471;SDS011;20710;49.976;19.836;2022-11-20T04:34:40;130.33;;;54.30;;
34471;SDS011;20710;49.976;19.836;2022-11-20T04:40:41;131.40;;;55.07;;
34471;SDS011;20710;49.976;19.836;2022-11-20T04:46:42;127.73;;;56.63;;
34471;SDS011;20710;49.976;19.836;2022-11-20T04:52:43;130.53;;;54.70;;
34471;SDS011;20710;49.976;19.836;2022-11-20T04:58:45;127.00;;;51.90;;
34471;SDS011;20710;49.976;19.836;2022-11-20T05:04:46;116.77;;;51.17;;
34471;SDS011;20710;49.976;19.836;2022-11-20T05:10:47;130.17;;;55.10;;
34471;SDS011;20710;49.976;19.836;2022-11-20T05:16:49;126.33;;;52.13;;
34471;SDS011;20710;49.976;19.836;2022-11-20T05:22:50;133.43;;;56.67;;
34471;SDS011;20710;49.976;19.836;2022-11-20T05:28:52;135.03;;;56.80;;
34471;SDS011;20710;49.976;19.836;2022-11-20T05:34:53;137.40;;;55.00;;
34471;SDS011;20710;49.976;19.836;2022-11-20T05:40:54;134.03;;;59.27;;
34471;SDS011;20710;49.976;19.836;2022-11-20T05:46:56;124.40;;;55.43;;
34471;SDS011;20710;49.976;19.836;2022-11-20T05:52:58;137.27;;;53.33;;
34471;SDS011;20710;49.976;19.836;2022-11-20T05:59:02;133.55;;;56.00;;
34471;SDS011;20710;49.976;19.836;2022-11-20T06:05:04;144.47;;;59.63;;
34471;SDS011;20710;49.976;19.836;2022-11-20T06:11:06;133.73;;;56.17;;
34471;SDS011;20710;49.976;19.836;2022-11-20T06:17:10;144.93;;;59.40;;
34471;SDS011;20710;49.976;19.836;2022-11-20T06:23:12;159.13;;;65.17;;
34471;SDS011;20710;49.976;19.836;2022-11-20T06:29:13;164.80;;;68.57;;
34471;SDS011;20710;49.976;19.836;2022-11-20T06:35:15;162.23;;;67.07;;
34471;SDS011;20710;49.976;19.836;2022-11-20T06:41:20;137.97;;;62.57;;
34471;SDS011;20710;49.976;19.836;2022-11-20T06:47:22;157.60;;;67.77;;
34471;SDS011;20710;49.976;19.836;2022-11-20T06:53:24;158.47;;;69.07;;
34471;SDS011;20710;49.976;19.836;2022-11-20T06:59:25;191.67;;;73.90;;
34471;SDS011;20710;49.976;19.836;2022-11-20T07:05:27;179.40;;;70.60;;
34471;SDS011;20710;49.976;19.836;2022-11-20T07:11:28;215.47;;;77.80;;
34471;SDS011;20710;49.976;19.836;2022-11-20T07:17:29;168.40;;;68.20;;
34471;SDS011;20710;49.976;19.836;2022-11-20T07:23:30;175.93;;;69.57;;
34471;SDS011;20710;49.976;19.836;2022-11-20T07:29:31;175.17;;;73.13;;
34471;SDS011;20710;49.976;19.836;2022-11-20T07:35:33;175.07;;;73.23;;
34471;SDS011;20710;49.976;19.836;2022-11-20T07:41:34;161.23;;;65.07;;
34471;SDS011;20710;49.976;19.836;2022-11-20T07:47:36;155.40;;;67.10;;
34471;SDS011;20710;49.976;19.836;2022-11-20T07:53:37;158.80;;;66.73;;
34471;SDS011;20710;49.976;19.836;2022-11-20T07:59:38;145.40;;;64.47;;
34471;SDS011;20710;49.976;19.836;2022-11-20T08:05:39;157.10;;;68.07;;
34471;SDS011;20710;49.976;19.836;2022-11-20T08:11:42;155.77;;;64.77;;
34471;SDS011;20710;49.976;19.836;2022-11-20T08:18:07;174.97;;;68.93;;
34471;SDS011;20710;49.976;19.836;2022-11-20T08:24:07;184.70;;;73.90;;
34471;SDS011;20710;49.976;19.836;2022-11-20T08:30:10;186.17;;;73.83;;
34471;SDS011;20710;49.976;19.836;2022-11-20T08:36:12;169.07;;;71.07;;
34471;SDS011;20710;49.976;19.836;2022-11-20T08:42:13;177.07;;;72.93;;
34471;SDS011;20710;49.976;19.836;2022-11-20T08:48:15;164.90;;;67.33;;
34471;SDS011;20710;49.976;19.836;2022-11-20T08:54:16;176.93;;;69.27;;
34471;SDS011;20710;49.976;19.836;2022-11-20T09:00:19;173.30;;;67.37;;
34471;SDS011;20710;49.976;19.836;2022-11-20T09:06:20;182.93;;;73.07;;
34471;SDS011;20710;49.976;19.836;2022-11-20T09:12:22;187.07;;;71.57;;
34471;SDS011;20710;49.976;19.836;2022-11-20T09:18:23;183.67;;;71.70;;
34471;SDS011;20710;49.976;19.836;2022-11-20T09:24:26;190.10;;;72.47;;
34471;SDS011;20710;49.976;19.836;2022-11-20T09:30:28;188.03;;;76.33;;
34471;SDS011;20710;49.976;19.836;2022-11-20T09:36:29;190.37;;;75.07;;
34471;SDS011;20710;49.976;19.836;2022-11-20T09:42:38;184.17;;;73.97;;
34471;SDS011;20710;49.976;19.836;2022-11-20T09:55:31;156.77;;;65.97;;
34471;SDS011;20710;49.976;19.836;2022-11-20T10:01:33;175.93;;;75.37;;
34471;SDS011;20710;49.976;19.836;2022-11-20T10:07:52;165.43;;;70.07;;
34471;SDS011;20710;49.976;19.836;2022-11-20T10:14:21;156.83;;;68.97;;
34471;SDS011;20710;49.976;19.836;2022-11-20T10:20:45;161.90;;;68.70;;
34471;SDS011;20710;49.976;19.836;2022-11-20T10:33:55;154.60;;;68.80;;
34471;SDS011;20710;49.976;19.836;2022-11-20T10:40:02;149.70;;;66.50;;
34471;SDS011;20710;49.976;19.836;2022-11-20T10:46:19;146.77;;;67.50;;
34471;SDS011;20710;49.976;19.836;2022-11-20T11:11:26;151.67;;;69.40;;
34471;SDS011;20710;49.976;19.836;2022-11-20T11:17:33;160.57;;;72.30;;
34471;SDS011;20710;49.976;19.836;2022-11-20T11:23:41;155.57;;;72.37;;
34471;SDS011;20710;49.976;19.836;2022-11-20T11:29:43;145.23;;;65.80;;
34471;SDS011;20710;49.976;19.836;2022-11-20T11:35:55;165.87;;;75.87;;
34471;SDS011;20710;49.976;19.836;2022-11-20T11:42:02;155.60;;;72.77;;
34471;SDS011;20710;49.976;19.836;2022-11-20T11:48:04;161.37;;;76.80;;
34471;SDS011;20710;49.976;19.836;2022-11-20T11:54:13;154.20;;;74.67;;
34471;SDS011;20710;49.976;19.836;2022-11-20T12:00:16;171.60;;;81.63;;
34471;SDS011;20710;49.976;19.836;2022-11-20T12:06:21;134.97;;;64.00;;
34471;SDS011;20710;49.976;19.836;2022-11-20T12:12:28;169.22;;;79.55;;
34471;SDS011;20710;49.976;19.836;2022-11-20T12:18:40;181.07;;;82.67;;
34471;SDS011;20710;49.976;19.836;2022-11-20T12:38:06;171.80;;;83.75;;
34471;SDS011;20710;49.976;19.836;2022-11-20T13:03:49;166.13;;;81.47;;
34471;SDS011;20710;49.976;19.836;2022-11-20T13:09:54;178.23;;;83.05;;
34471;SDS011;20710;49.976;19.836;2022-11-20T13:16:02;182.27;;;85.72;;
34471;SDS011;20710;49.976;19.836;2022-11-20T13:22:47;176.02;;;83.00;;
34471;SDS011;20710;49.976;19.836;2022-11-20T13:29:02;170.00;;;80.92;;
34471;SDS011;20710;49.976;19.836;2022-11-20T13:35:08;149.70;;;70.90;;
34471;SDS011;20710;49.976;19.836;2022-11-20T13:41:31;159.07;;;72.87;;
34471;SDS011;20710;49.976;19.836;2022-11-20T13:47:46;153.85;;;68.85;;
34471;SDS011;20710;49.976;19.836;2022-11-20T13:54:00;156.20;;;71.77;;
34471;SDS011;20710;49.976;19.836;2022-11-20T14:06:25;170.12;;;75.72;;
34471;SDS011;20710;49.976;19.836;2022-11-20T14:12:35;192.87;;;82.60;;
34471;SDS011;20710;49.976;19.836;2022-11-20T14:18:41;165.32;;;75.85;;
34471;SDS011;20710;49.976;19.836;2022-11-20T14:24:42;178.93;;;83.50;;
34471;SDS011;20710;49.976;19.836;2022-11-20T14:30:44;168.50;;;79.80;;
34471;SDS011;20710;49.976;19.836;2022-11-20T14:36:48;181.55;;;79.72;;
34471;SDS011;20710;49.976;19.836;2022-11-20T14:42:58;182.83;;;81.87;;
34471;SDS011;20710;49.976;19.836;2022-11-20T14:49:00;180.37;;;77.60;;
34471;SDS011;20710;49.976;19.836;2022-11-20T14:55:04;177.97;;;78.65;;
34471;SDS011;20710;49.976;19.836;2022-11-20T15:01:11;216.27;;;91.70;;
34471;SDS011;20710;49.976;19.836;2022-11-20T15:07:23;183.45;;;79.67;;
34471;SDS011;20710;49.976;19.836;2022-11-20T15:13:29;195.87;;;87.00;;
34471;SDS011;20710;49.976;19.836;2022-11-20T15:19:37;221.20;;;96.60;;
34471;SDS011;20710;49.976;19.836;2022-11-20T15:25:39;227.50;;;101.00;;
34471;SDS011;20710;49.976;19.836;2022-11-20T15:31:42;232.57;;;102.27;;
34471;SDS011;20710;49.976;19.836;2022-11-20T15:37:45;217.13;;;100.97;;
34471;SDS011;20710;49.976;19.836;2022-11-20T15:43:46;189.87;;;85.10;;
34471;SDS011;20710;49.976;19.836;2022-11-20T15:49:47;173.03;;;80.97;;
34471;SDS011;20710;49.976;19.836;2022-11-20T15:55:49;193.07;;;83.27;;
34471;SDS011;20710;49.976;19.836;2022-11-20T16:01:50;194.30;;;84.87;;
34471;SDS011;20710;49.976;19.836;2022-11-20T16:07:52;212.13;;;92.83;;
34471;SDS011;20710;49.976;19.836;2022-11-20T16:13:53;184.63;;;87.07;;
34471;SDS011;20710;49.976;19.836;2022-11-20T16:20:13;196.93;;;87.73;;
34471;SDS011;20710;49.976;19.836;2022-11-20T16:26:17;196.57;;;87.00;;
34471;SDS011;20710;49.976;19.836;2022-11-20T16:32:19;205.50;;;92.00;;
34471;SDS011;20710;49.976;19.836;2022-11-20T16:38:35;220.53;;;94.33;;
34471;SDS011;20710;49.976;19.836;2022-11-20T16:44:30;205.93;;;92.97;;
34471;SDS011;20710;49.976;19.836;2022-11-20T16:50:32;199.40;;;92.43;;
34471;SDS011;20710;49.976;19.836;2022-11-20T16:56:44;192.53;;;88.03;;
34471;SDS011;20710;49.976;19.836;2022-11-20T17:03:04;207.37;;;92.93;;
34471;SDS011;20710;49.976;19.836;2022-11-20T17:09:11;195.93;;;91.17;;
34471;SDS011;20710;49.976;19.836;2022-11-20T17:15:13;213.17;;;97.03;;
34471;SDS011;20710;49.976;19.836;2022-11-20T17:21:15;232.77;;;103.30;;
34471;SDS011;20710;49.976;19.836;2022-11-20T17:27:23;231.80;;;102.03;;
34471;SDS011;20710;49.976;19.836;2022-11-20T17:33:49;223.87;;;104.80;;
34471;SDS011;20710;49.976;19.836;2022-11-20T17:39:53;237.57;;;104.77;;
34471;SDS011;20710;49.976;19.836;2022-11-20T17:45:57;221.10;;;101.33;;
34471;SDS011;20710;49.976;19.836;2022-11-20T17:51:58;211.00;;;98.20;;
34471;SDS011;20710;49.976;19.836;2022-11-20T17:58:00;228.17;;;107.27;;
34471;SDS011;20710;49.976;19.836;2022-11-20T18:04:03;207.50;;;98.20;;
34471;SDS011;20710;49.976;19.836;2022-11-20T18:10:06;214.83;;;100.03;;
34471;SDS011;20710;49.976;19.836;2022-11-20T18:16:12;212.42;;;100.72;;
34471;SDS011;20710;49.976;19.836;2022-11-20T18:22:14;229.57;;;107.87;;
34471;SDS011;20710;49.976;19.836;2022-11-20T18:28:18;231.10;;;107.30;;
34471;SDS011;20710;49.976;19.836;2022-11-20T18:34:19;310.93;;;133.13;;
34471;SDS011;20710;49.976;19.836;2022-11-20T18:40:20;247.17;;;108.43;;
34471;SDS011;20710;49.976;19.836;2022-11-20T18:46:22;275.47;;;121.47;;
34471;SDS011;20710;49.976;19.836;2022-11-20T18:58:33;264.87;;;118.27;;
34471;SDS011;20710;49.976;19.836;2022-11-20T19:04:34;273.10;;;126.47;;
34471;SDS011;20710;49.976;19.836;2022-11-20T19:10:36;252.77;;;110.73;;
34471;SDS011;20710;49.976;19.836;2022-11-20T19:16:37;264.20;;;124.20;;
34471;SDS011;20710;49.976;19.836;2022-11-20T19:22:39;254.43;;;113.17;;
34471;SDS011;20710;49.976;19.836;2022-11-20T19:28:40;212.13;;;92.77;;
34471;SDS011;20710;49.976;19.836;2022-11-20T19:34:42;233.73;;;104.77;;
34471;SDS011;20710;49.976;19.836;2022-11-20T19:40:43;240.07;;;115.60;;
34471;SDS011;20710;49.976;19.836;2022-11-20T19:46:45;227.90;;;107.40;;
34471;SDS011;20710;49.976;19.836;2022-11-20T19:52:46;241.33;;;111.17;;
34471;SDS011;20710;49.976;19.836;2022-11-20T19:58:51;269.97;;;121.73;;
34471;SDS011;20710;49.976;19.836;2022-11-20T20:04:53;265.37;;;124.27;;
34471;SDS011;20710;49.976;19.836;2022-11-20T20:10:54;293.17;;;135.33;;
34471;SDS011;20710;49.976;19.836;2022-11-20T20:16:56;282.47;;;126.33;;
34471;SDS011;20710;49.976;19.836;2022-11-20T20:22:57;288.47;;;132.23;;
34471;SDS011;20710;49.976;19.836;2022-11-20T20:28:59;310.50;;;146.00;;
34471;SDS011;20710;49.976;19.836;2022-11-20T20:35:02;331.07;;;149.87;;
34471;SDS011;20710;49.976;19.836;2022-11-20T20:41:05;303.20;;;132.93;;
34471;SDS011;20710;49.976;19.836;2022-11-20T20:47:07;303.50;;;131.57;;
34471;SDS011;20710;49.976;19.836;2022-11-20T20:53:08;339.43;;;156.00;;
34471;SDS011;20710;49.976;19.836;2022-11-20T20:59:10;322.50;;;149.20;;
34471;SDS011;20710;49.976;19.836;2022-11-20T21:05:11;381.73;;;166.33;;
34471;SDS011;20710;49.976;19.836;2022-11-20T21:11:13;379.10;;;173.03;;
34471;SDS011;20710;49.976;19.836;2022-11-20T21:17:16;367.83;;;165.07;;
34471;SDS011;20710;49.976;19.836;2022-11-20T21:23:18;384.57;;;175.93;;
34471;SDS011;20710;49.976;19.836;2022-11-20T21:29:20;323.63;;;145.53;;
34471;SDS011;20710;49.976;19.836;2022-11-20T21:35:22;254.67;;;116.20;;
34471;SDS011;20710;49.976;19.836;2022-11-20T21:41:24;293.87;;;129.87;;
34471;SDS011;20710;49.976;19.836;2022-11-20T21:47:27;283.67;;;126.57;;
34471;SDS011;20710;49.976;19.836;2022-11-20T21:53:28;267.00;;;121.37;;
34471;SDS011;20710;49.976;19.836;2022-11-20T21:59:30;252.10;;;114.73;;
34471;SDS011;20710;49.976;19.836;2022-11-20T22:05:32;253.10;;;118.47;;
34471;SDS011;20710;49.976;19.836;2022-11-20T22:11:33;239.03;;;110.20;;
34471;SDS011;20710;49.976;19.836;2022-11-20T22:17:34;279.60;;;126.33;;
34471;SDS011;20710;49.976;19.836;2022-11-20T22:23:53;247.10;;;114.90;;
34471;SDS011;20710;49.976;19.836;2022-11-20T22:29:55;259.00;;;119.47;;
34471;SDS011;20710;49.976;19.836;2022-11-20T22:36:06;223.23;;;104.30;;
34471;SDS011;20710;49.976;19.836;2022-11-20T22:42:10;263.57;;;121.93;;
34471;SDS011;20710;49.976;19.836;2022-11-20T22:48:12;273.43;;;127.00;;
34471;SDS011;20710;49.976;19.836;2022-11-20T22:54:13;253.87;;;121.10;;
34471;SDS011;20710;49.976;19.836;2022-11-20T23:00:17;266.03;;;120.60;;
34471;SDS011;20710;49.976;19.836;2022-11-20T23:06:19;265.07;;;124.70;;
34471;SDS011;20710;49.976;19.836;2022-11-20T23:12:21;266.07;;;123.43;;
34471;SDS011;20710;49.976;19.836;2022-11-20T23:18:23;255.57;;;119.70;;
34471;SDS011;20710;49.976;19.836;2022-11-20T23:24:24;208.67;;;97.30;;
34471;SDS011;20710;49.976;19.836;2022-11-20T23:30:25;216.00;;;98.30;;
34471;SDS011;20710;49.976;19.836;2022-11-20T23:36:26;196.83;;;93.50;;
34471;SDS011;20710;49.976;19.836;2022-11-20T23:42:28;185.27;;;83.50;;
34471;SDS011;20710;49.976;19.836;2022-11-20T23:48:30;205.90;;;93.33;;
34471;SDS011;20710;49.976;19.836;2022-11-20T23:54:36;218.23;;;99.53;;
